sensor_id;sensor_type;location;lat;lon;timestamp;temperature;humidity
8178;DHT22;4130;48.740;9.132;2024-01-15T00:00:22;-0.50;99.90
8178;DHT22;4130;48.740;9.132;2024-01-15T00:02:49;-1.70;99.90
8178;DHT22;4130;48.740;9.132;2024-01-15T00:05:15;-1.70;99.90
8178;DHT22;4130;48.740;9.132;2024-01-15T00:07:42;-1.60;99.90
8178;DHT22;4130;48.740;9.132;2024-01-15T00:10:11;-1.60;99.90
8178;DHT22;4130;48.740;9.132;2024-01-15T00:12:38;-1.80;99.90
8178;DHT22;4130;48.740;9.132;2024-01-15T00:15:05;-1.70;99.90
8178;DHT22;4130;48.740;9.132;2024-01-15T00:17:32;-1.70;99.90
8178;DHT22;4130;48.740;9.132;2024-01-15T00:19:59;-1.60;99.90
8178;DHT22;4130;48.740;9.132;2024-01-15T00:22:26;-1.60;99.90
8178;DHT22;4130;48.740;9.132;2024-01-15T00:24:53;-1.00;99.90
8178;DHT22;4130;48.740;9.132;2024-01-15T00:27:22;-0.90;99.90
8178;DHT22;4130;48.740;9.132;2024-01-15T00:29:49;-1.20;99.90
8178;DHT22;4130;48.740;9.132;2024-01-15T00:32:16;-1.80;99.90
8178;DHT22;4130;48.740;9.132;2024-01-15T00:34:43;-1.90;99.90
8178;DHT22;4130;48.740;9.132;2024-01-15T00:37:09;-0.80;99.90
8178;DHT22;4130;48.740;9.132;2024-01-15T00:39:36;-3.10;99.90
8178;DHT22;4130;48.740;9.132;2024-01-15T00:42:03;-1.40;99.90
8178;DHT22;4130;48.740;9.132;2024-01-15T00:44:32;-2.10;99.90
8178;DHT22;4130;48.740;9.132;2024-01-15T00:46:58;-2.00;99.90
8178;DHT22;4130;48.740;9.132;2024-01-15T00:49:27;-1.30;99.90
8178;DHT22;4130;48.740;9.132;2024-01-15T00:51:54;-1.40;99.90
8178;DHT22;4130;48.740;9.132;2024-01-15T00:54:21;-0.20;99.90
8178;DHT22;4130;48.740;9.132;2024-01-15T00:56:48;-2.20;99.90
8178;DHT22;4130;48.740;9.132;2024-01-15T00:59:15;-0.90;99.90
8178;DHT22;4130;48.740;9.132;2024-01-15T01:01:43;-2.00;99.90
8178;DHT22;4130;48.740;9.132;2024-01-15T01:04:11;-2.00;99.90
8178;DHT22;4130;48.740;9.132;2024-01-15T01:06:38;-1.70;99.90
8178;DHT22;4130;48.740;9.132;2024-01-15T01:09:05;-0.60;99.90
8178;DHT22;4130;48.740;9.132;2024-01-15T01:11:32;-1.80;99.90
8178;DHT22;4130;48.740;9.132;2024-01-15T01:13:59;-1.80;99.90
8178;DHT22;4130;48.740;9.132;2024-01-15T01:16:26;-1.80;99.90
8178;DHT22;4130;48.740;9.132;2024-01-15T01:18:54;-1.70;99.90
8178;DHT22;4130;48.740;9.132;2024-01-15T01:21:21;-1.80;99.90
8178;DHT22;4130;48.740;9.132;2024-01-15T01:23:48;-1.60;99.90
8178;DHT22;4130;48.740;9.132;2024-01-15T01:26:15;-0.80;99.90
8178;DHT22;4130;48.740;9.132;2024-01-15T01:28:43;-1.70;99.90
8178;DHT22;4130;48.740;9.132;2024-01-15T01:31:09;-1.60;99.90
8178;DHT22;4130;48.740;9.132;2024-01-15T01:33:38;-1.70;99.90
8178;DHT22;4130;48.740;9.132;2024-01-15T01:36:08;-1.70;99.90
8178;DHT22;4130;48.740;9.132;2024-01-15T01:38:36;-1.70;99.90
8178;DHT22;4130;48.740;9.132;2024-01-15T01:41:03;-1.70;99.90
8178;DHT22;4130;48.740;9.132;2024-01-15T01:43:30;-1.10;99.90
8178;DHT22;4130;48.740;9.132;2024-01-15T01:45:57;-1.00;99.90
8178;DHT22;4130;48.740;9.132;2024-01-15T01:48:25;-1.70;99.90
8178;DHT22;4130;48.740;9.132;2024-01-15T01:50:54;-1.70;99.90
8178;DHT22;4130;48.740;9.132;2024-01-15T01:53:25;-1.70;99.90
8178;DHT22;4130;48.740;9.132;2024-01-15T01:55:53;-1.70;99.90
8178;DHT22;4130;48.740;9.132;2024-01-15T01:58:20;-1.70;99.90
8178;DHT22;4130;48.740;9.132;2024-01-15T02:00:48;-0.40;99.90
8178;DHT22;4130;48.740;9.132;2024-01-15T02:03:15;-1.70;99.90
8178;DHT22;4130;48.740;9.132;2024-01-15T02:05:43;-1.40;99.90
8178;DHT22;4130;48.740;9.132;2024-01-15T02:08:10;-1.80;99.90
8178;DHT22;4130;48.740;9.132;2024-01-15T02:10:38;-0.50;99.90
8178;DHT22;4130;48.740;9.132;2024-01-15T02:13:05;-1.90;99.90
8178;DHT22;4130;48.740;9.132;2024-01-15T02:15:32;0.00;99.90
8178;DHT22;4130;48.740;9.132;2024-01-15T02:17:59;-1.80;99.90
8178;DHT22;4130;48.740;9.132;2024-01-15T02:20:27;-1.90;99.90
8178;DHT22;4130;48.740;9.132;2024-01-15T02:23:01;-2.00;99.90
8178;DHT22;4130;48.740;9.132;2024-01-15T02:25:28;-2.00;99.90
8178;DHT22;4130;48.740;9.132;2024-01-15T02:27:55;-2.00;99.90
8178;DHT22;4130;48.740;9.132;2024-01-15T02:30:25;-2.10;99.90
8178;DHT22;4130;48.740;9.132;2024-01-15T02:32:54;-2.10;99.90
8178;DHT22;4130;48.740;9.132;2024-01-15T02:35:20;-1.40;99.90
8178;DHT22;4130;48.740;9.132;2024-01-15T02:37:47;-2.20;99.90
8178;DHT22;4130;48.740;9.132;2024-01-15T02:40:16;-2.20;99.90
8178;DHT22;4130;48.740;9.132;2024-01-15T02:42:42;-1.30;99.90
8178;DHT22;4130;48.740;9.132;2024-01-15T02:45:09;-2.50;99.90
8178;DHT22;4130;48.740;9.132;2024-01-15T02:47:36;-2.50;99.90
8178;DHT22;4130;48.740;9.132;2024-01-15T02:50:06;-1.50;99.90
8178;DHT22;4130;48.740;9.132;2024-01-15T02:52:33;-2.60;99.90
8178;DHT22;4130;48.740;9.132;2024-01-15T02:55:00;-2.60;99.90
8178;DHT22;4130;48.740;9.132;2024-01-15T02:57:28;-2.50;99.90
8178;DHT22;4130;48.740;9.132;2024-01-15T02:59:56;-1.80;99.90
8178;DHT22;4130;48.740;9.132;2024-01-15T03:02:23;-2.50;99.90
8178;DHT22;4130;48.740;9.132;2024-01-15T03:04:50;-2.60;99.90
8178;DHT22;4130;48.740;9.132;2024-01-15T03:07:18;-2.60;99.90
8178;DHT22;4130;48.740;9.132;2024-01-15T03:09:45;-2.00;99.90
8178;DHT22;4130;48.740;9.132;2024-01-15T03:12:13;-1.50;99.90
8178;DHT22;4130;48.740;9.132;2024-01-15T03:14:41;-2.50;99.90
8178;DHT22;4130;48.740;9.132;2024-01-15T03:17:08;-2.40;99.90
8178;DHT22;4130;48.740;9.132;2024-01-15T03:19:37;-1.30;99.90
8178;DHT22;4130;48.740;9.132;2024-01-15T03:22:04;-2.40;99.90
8178;DHT22;4130;48.740;9.132;2024-01-15T03:24:33;-2.30;99.90
8178;DHT22;4130;48.740;9.132;2024-01-15T03:27:00;-2.40;99.90
8178;DHT22;4130;48.740;9.132;2024-01-15T03:29:27;-2.30;99.90
8178;DHT22;4130;48.740;9.132;2024-01-15T03:31:55;-2.30;99.90
8178;DHT22;4130;48.740;9.132;2024-01-15T03:34:22;-0.70;99.90
8178;DHT22;4130;48.740;9.132;2024-01-15T03:36:49;-1.10;99.90
8178;DHT22;4130;48.740;9.132;2024-01-15T03:39:16;-2.20;99.90
8178;DHT22;4130;48.740;9.132;2024-01-15T03:41:43;-2.10;99.90
8178;DHT22;4130;48.740;9.132;2024-01-15T03:44:11;-1.50;99.90
8178;DHT22;4130;48.740;9.132;2024-01-15T03:46:38;-1.10;99.90
8178;DHT22;4130;48.740;9.132;2024-01-15T03:49:07;-2.00;99.90
8178;DHT22;4130;48.740;9.132;2024-01-15T03:51:34;-2.00;99.90
8178;DHT22;4130;48.740;9.132;2024-01-15T03:54:01;-1.90;99.90
8178;DHT22;4130;48.740;9.132;2024-01-15T03:56:28;-1.20;99.90
8178;DHT22;4130;48.740;9.132;2024-01-15T03:58:55;-1.80;99.90
8178;DHT22;4130;48.740;9.132;2024-01-15T04:01:22;-0.60;99.90
8178;DHT22;4130;48.740;9.132;2024-01-15T04:03:49;-1.80;99.90
8178;DHT22;4130;48.740;9.132;2024-01-15T04:06:17;-1.20;99.90
8178;DHT22;4130;48.740;9.132;2024-01-15T04:08:44;-1.60;99.90
8178;DHT22;4130;48.740;9.132;2024-01-15T04:11:11;-0.50;99.90
8178;DHT22;4130;48.740;9.132;2024-01-15T04:13:38;-1.00;99.90
8178;DHT22;4130;48.740;9.132;2024-01-15T04:16:05;-1.30;99.90
8178;DHT22;4130;48.740;9.132;2024-01-15T04:18:32;-0.90;99.90
8178;DHT22;4130;48.740;9.132;2024-01-15T04:20:58;-1.20;99.90
8178;DHT22;4130;48.740;9.132;2024-01-15T04:23:27;0.80;99.90
8178;DHT22;4130;48.740;9.132;2024-01-15T04:25:55;-1.20;99.90
8178;DHT22;4130;48.740;9.132;2024-01-15T04:28:21;-0.30;99.90
8178;DHT22;4130;48.740;9.132;2024-01-15T04:30:48;-1.10;99.90
8178;DHT22;4130;48.740;9.132;2024-01-15T04:33:15;0.60;99.90
8178;DHT22;4130;48.740;9.132;2024-01-15T04:35:42;0.40;99.90
8178;DHT22;4130;48.740;9.132;2024-01-15T04:38:09;-0.10;99.90
8178;DHT22;4130;48.740;9.132;2024-01-15T04:40:37;-0.70;99.90
8178;DHT22;4130;48.740;9.132;2024-01-15T04:43:04;-0.80;99.90
8178;DHT22;4130;48.740;9.132;2024-01-15T04:45:31;-0.50;99.90
8178;DHT22;4130;48.740;9.132;2024-01-15T04:47:58;-1.00;99.90
8178;DHT22;4130;48.740;9.132;2024-01-15T04:50:24;-2.00;99.90
8178;DHT22;4130;48.740;9.132;2024-01-15T04:52:51;-0.80;99.90
8178;DHT22;4130;48.740;9.132;2024-01-15T04:55:18;-0.60;99.90
8178;DHT22;4130;48.740;9.132;2024-01-15T04:57:46;-0.80;99.90
8178;DHT22;4130;48.740;9.132;2024-01-15T05:00:13;-0.80;99.90
8178;DHT22;4130;48.740;9.132;2024-01-15T05:02:40;-0.80;99.90
8178;DHT22;4130;48.740;9.132;2024-01-15T05:05:07;-0.80;99.90
8178;DHT22;4130;48.740;9.132;2024-01-15T05:07:34;-0.80;99.90
8178;DHT22;4130;48.740;9.132;2024-01-15T05:10:01;0.30;99.90
8178;DHT22;4130;48.740;9.132;2024-01-15T05:12:29;-0.70;99.90
8178;DHT22;4130;48.740;9.132;2024-01-15T05:14:58;-1.20;99.90
8178;DHT22;4130;48.740;9.132;2024-01-15T05:17:25;0.30;99.90
8178;DHT22;4130;48.740;9.132;2024-01-15T05:19:51;0.30;99.90
8178;DHT22;4130;48.740;9.132;2024-01-15T05:22:18;-0.80;99.90
8178;DHT22;4130;48.740;9.132;2024-01-15T05:24:46;-0.80;99.90
8178;DHT22;4130;48.740;9.132;2024-01-15T05:27:20;-0.80;99.90
8178;DHT22;4130;48.740;9.132;2024-01-15T05:29:47;0.00;99.90
8178;DHT22;4130;48.740;9.132;2024-01-15T05:32:15;-0.80;99.90
8178;DHT22;4130;48.740;9.132;2024-01-15T05:34:42;-0.70;99.90
8178;DHT22;4130;48.740;9.132;2024-01-15T05:37:08;-0.80;99.90
8178;DHT22;4130;48.740;9.132;2024-01-15T05:39:35;-1.20;99.90
8178;DHT22;4130;48.740;9.132;2024-01-15T05:42:03;-0.80;99.90
8178;DHT22;4130;48.740;9.132;2024-01-15T05:44:33;-0.90;99.90
8178;DHT22;4130;48.740;9.132;2024-01-15T05:46:59;-0.10;99.90
8178;DHT22;4130;48.740;9.132;2024-01-15T05:49:28;0.00;99.90
8178;DHT22;4130;48.740;9.132;2024-01-15T05:51:54;-0.70;99.90
8178;DHT22;4130;48.740;9.132;2024-01-15T05:54:21;-0.90;99.90
8178;DHT22;4130;48.740;9.132;2024-01-15T05:56:48;0.80;99.90
8178;DHT22;4130;48.740;9.132;2024-01-15T05:59:15;-0.80;99.90
8178;DHT22;4130;48.740;9.132;2024-01-15T06:01:42;-0.70;99.90
8178;DHT22;4130;48.740;9.132;2024-01-15T06:04:09;-0.70;99.90
8178;DHT22;4130;48.740;9.132;2024-01-15T06:06:37;-0.70;99.90
8178;DHT22;4130;48.740;9.132;2024-01-15T06:09:04;-0.70;99.90
8178;DHT22;4130;48.740;9.132;2024-01-15T06:11:32;-0.80;99.90
8178;DHT22;4130;48.740;9.132;2024-01-15T06:13:58;-0.80;99.90
8178;DHT22;4130;48.740;9.132;2024-01-15T06:16:26;-0.80;99.90
8178;DHT22;4130;48.740;9.132;2024-01-15T06:18:53;-0.70;99.90
8178;DHT22;4130;48.740;9.132;2024-01-15T06:21:20;-0.70;99.90
8178;DHT22;4130;48.740;9.132;2024-01-15T06:23:48;0.50;99.90
8178;DHT22;4130;48.740;9.132;2024-01-15T06:26:15;-0.70;99.90
8178;DHT22;4130;48.740;9.132;2024-01-15T06:28:45;-0.70;99.90
8178;DHT22;4130;48.740;9.132;2024-01-15T06:31:12;0.50;99.90
8178;DHT22;4130;48.740;9.132;2024-01-15T06:33:39;-0.50;99.90
8178;DHT22;4130;48.740;9.132;2024-01-15T06:36:07;-0.70;99.90
8178;DHT22;4130;48.740;9.132;2024-01-15T06:38:34;-0.80;99.90
8178;DHT22;4130;48.740;9.132;2024-01-15T06:41:02;-0.80;99.90
8178;DHT22;4130;48.740;9.132;2024-01-15T06:43:29;-0.80;99.90
8178;DHT22;4130;48.740;9.132;2024-01-15T06:45:56;-0.80;99.90
8178;DHT22;4130;48.740;9.132;2024-01-15T06:48:23;-0.70;99.90
8178;DHT22;4130;48.740;9.132;2024-01-15T06:50:50;-0.70;99.90
8178;DHT22;4130;48.740;9.132;2024-01-15T06:53:16;-0.70;99.90
8178;DHT22;4130;48.740;9.132;2024-01-15T06:55:43;-0.70;99.90
8178;DHT22;4130;48.740;9.132;2024-01-15T06:58:12;0.20;99.90
8178;DHT22;4130;48.740;9.132;2024-01-15T07:00:38;0.00;99.90
8178;DHT22;4130;48.740;9.132;2024-01-15T07:03:06;-0.70;99.90
8178;DHT22;4130;48.740;9.132;2024-01-15T07:05:32;-0.70;99.90
8178;DHT22;4130;48.740;9.132;2024-01-15T07:07:59;-0.60;99.90
8178;DHT22;4130;48.740;9.132;2024-01-15T07:10:26;-0.60;99.90
8178;DHT22;4130;48.740;9.132;2024-01-15T07:12:53;-0.60;99.90
8178;DHT22;4130;48.740;9.132;2024-01-15T07:15:21;-0.60;99.90
8178;DHT22;4130;48.740;9.132;2024-01-15T07:17:51;-0.60;99.90
8178;DHT22;4130;48.740;9.132;2024-01-15T07:20:18;-0.60;99.90
8178;DHT22;4130;48.740;9.132;2024-01-15T07:22:46;-0.60;99.90
8178;DHT22;4130;48.740;9.132;2024-01-15T07:25:13;-0.60;99.90
8178;DHT22;4130;48.740;9.132;2024-01-15T07:27:39;0.40;99.90
8178;DHT22;4130;48.740;9.132;2024-01-15T07:30:10;-0.60;99.90
8178;DHT22;4130;48.740;9.132;2024-01-15T07:32:38;-0.60;99.90
8178;DHT22;4130;48.740;9.132;2024-01-15T07:35:06;-0.60;99.90
8178;DHT22;4130;48.740;9.132;2024-01-15T07:37:33;-0.60;99.90
8178;DHT22;4130;48.740;9.132;2024-01-15T07:40:00;-0.60;99.90
8178;DHT22;4130;48.740;9.132;2024-01-15T07:42:26;-0.60;99.90
8178;DHT22;4130;48.740;9.132;2024-01-15T07:44:53;-0.50;99.90
8178;DHT22;4130;48.740;9.132;2024-01-15T07:47:20;0.80;99.90
8178;DHT22;4130;48.740;9.132;2024-01-15T07:49:48;-0.50;99.90
8178;DHT22;4130;48.740;9.132;2024-01-15T07:52:15;-0.50;99.90
8178;DHT22;4130;48.740;9.132;2024-01-15T07:54:42;-0.40;99.90
8178;DHT22;4130;48.740;9.132;2024-01-15T07:57:10;-0.40;99.90
8178;DHT22;4130;48.740;9.132;2024-01-15T07:59:37;0.30;99.90
8178;DHT22;4130;48.740;9.132;2024-01-15T08:02:03;-0.30;99.90
8178;DHT22;4130;48.740;9.132;2024-01-15T08:04:30;0.40;99.90
8178;DHT22;4130;48.740;9.132;2024-01-15T08:06:58;-0.30;99.90
8178;DHT22;4130;48.740;9.132;2024-01-15T08:09:25;-0.30;99.90
8178;DHT22;4130;48.740;9.132;2024-01-15T08:11:52;-0.30;99.90
8178;DHT22;4130;48.740;9.132;2024-01-15T08:14:19;-0.20;99.90
8178;DHT22;4130;48.740;9.132;2024-01-15T08:16:46;0.80;99.90
8178;DHT22;4130;48.740;9.132;2024-01-15T08:19:13;-0.20;99.90
8178;DHT22;4130;48.740;9.132;2024-01-15T08:21:40;1.10;99.90
8178;DHT22;4130;48.740;9.132;2024-01-15T08:24:09;0.10;99.90
8178;DHT22;4130;48.740;9.132;2024-01-15T08:26:36;-0.20;99.90
8178;DHT22;4130;48.740;9.132;2024-01-15T08:29:02;-0.20;99.90
8178;DHT22;4130;48.740;9.132;2024-01-15T08:31:29;-0.10;99.90
8178;DHT22;4130;48.740;9.132;2024-01-15T08:33:56;-0.20;99.90
8178;DHT22;4130;48.740;9.132;2024-01-15T08:36:25;-0.10;99.90
8178;DHT22;4130;48.740;9.132;2024-01-15T08:38:51;-0.10;99.90
8178;DHT22;4130;48.740;9.132;2024-01-15T08:41:20;0.40;99.90
8178;DHT22;4130;48.740;9.132;2024-01-15T08:43:47;0.10;99.90
8178;DHT22;4130;48.740;9.132;2024-01-15T08:46:14;0.10;99.90
8178;DHT22;4130;48.740;9.132;2024-01-15T08:48:41;0.20;99.90
8178;DHT22;4130;48.740;9.132;2024-01-15T08:51:07;0.60;99.90
8178;DHT22;4130;48.740;9.132;2024-01-15T08:53:34;0.30;99.90
8178;DHT22;4130;48.740;9.132;2024-01-15T08:56:01;0.30;99.90
8178;DHT22;4130;48.740;9.132;2024-01-15T08:58:29;0.40;99.90
8178;DHT22;4130;48.740;9.132;2024-01-15T09:00:56;0.90;99.90
8178;DHT22;4130;48.740;9.132;2024-01-15T09:03:23;0.40;99.90
8178;DHT22;4130;48.740;9.132;2024-01-15T09:05:51;1.10;99.90
8178;DHT22;4130;48.740;9.132;2024-01-15T09:08:17;0.40;99.90
8178;DHT22;4130;48.740;9.132;2024-01-15T09:10:44;0.60;99.90
8178;DHT22;4130;48.740;9.132;2024-01-15T09:13:11;1.60;99.90
8178;DHT22;4130;48.740;9.132;2024-01-15T09:15:39;1.30;99.90
8178;DHT22;4130;48.740;9.132;2024-01-15T09:18:06;0.50;99.90
8178;DHT22;4130;48.740;9.132;2024-01-15T09:20:33;0.50;99.90
8178;DHT22;4130;48.740;9.132;2024-01-15T09:23:00;0.60;99.90
8178;DHT22;4130;48.740;9.132;2024-01-15T09:25:27;0.70;99.90
8178;DHT22;4130;48.740;9.132;2024-01-15T09:27:54;0.70;99.90
8178;DHT22;4130;48.740;9.132;2024-01-15T09:30:21;0.70;99.90
8178;DHT22;4130;48.740;9.132;2024-01-15T09:32:49;1.90;99.90
8178;DHT22;4130;48.740;9.132;2024-01-15T09:35:16;0.70;99.90
8178;DHT22;4130;48.740;9.132;2024-01-15T09:37:43;0.60;99.90
8178;DHT22;4130;48.740;9.132;2024-01-15T09:40:13;1.80;99.90
8178;DHT22;4130;48.740;9.132;2024-01-15T09:42:41;0.80;99.90
8178;DHT22;4130;48.740;9.132;2024-01-15T09:45:08;2.50;99.90
8178;DHT22;4130;48.740;9.132;2024-01-15T09:47:35;0.80;99.90
8178;DHT22;4130;48.740;9.132;2024-01-15T09:50:05;0.80;99.90
8178;DHT22;4130;48.740;9.132;2024-01-15T09:52:33;0.80;99.90
8178;DHT22;4130;48.740;9.132;2024-01-15T09:55:02;2.10;99.90
8178;DHT22;4130;48.740;9.132;2024-01-15T09:57:31;0.90;99.90
8178;DHT22;4130;48.740;9.132;2024-01-15T09:59:59;1.60;99.90
8178;DHT22;4130;48.740;9.132;2024-01-15T10:02:30;1.80;99.80
8178;DHT22;4130;48.740;9.132;2024-01-15T10:04:57;0.80;99.20
8178;DHT22;4130;48.740;9.132;2024-01-15T10:07:26;0.90;99.50
8178;DHT22;4130;48.740;9.132;2024-01-15T10:09:55;1.00;99.60
8178;DHT22;4130;48.740;9.132;2024-01-15T10:12:22;0.10;98.70
8178;DHT22;4130;48.740;9.132;2024-01-15T10:14:50;1.00;99.50
8178;DHT22;4130;48.740;9.132;2024-01-15T10:17:17;1.00;99.10
8178;DHT22;4130;48.740;9.132;2024-01-15T10:19:45;1.00;98.90
8178;DHT22;4130;48.740;9.132;2024-01-15T10:22:13;1.60;99.00
8178;DHT22;4130;48.740;9.132;2024-01-15T10:24:42;1.00;98.80
8178;DHT22;4130;48.740;9.132;2024-01-15T10:27:10;1.00;98.60
8178;DHT22;4130;48.740;9.132;2024-01-15T10:29:37;1.00;98.50
8178;DHT22;4130;48.740;9.132;2024-01-15T10:32:06;2.30;99.10
8178;DHT22;4130;48.740;9.132;2024-01-15T10:34:37;1.00;98.80
8178;DHT22;4130;48.740;9.132;2024-01-15T10:37:06;1.10;98.60
8178;DHT22;4130;48.740;9.132;2024-01-15T10:39:33;3.10;99.30
8178;DHT22;4130;48.740;9.132;2024-01-15T10:42:02;1.70;98.70
8178;DHT22;4130;48.740;9.132;2024-01-15T10:44:29;1.10;98.50
8178;DHT22;4130;48.740;9.132;2024-01-15T10:46:57;1.20;98.40
8178;DHT22;4130;48.740;9.132;2024-01-15T10:49:24;1.10;98.40
8178;DHT22;4130;48.740;9.132;2024-01-15T10:51:53;1.10;98.70
8178;DHT22;4130;48.740;9.132;2024-01-15T10:54:21;1.20;98.60
8178;DHT22;4130;48.740;9.132;2024-01-15T10:56:50;1.20;98.50
8178;DHT22;4130;48.740;9.132;2024-01-15T10:59:20;2.10;98.90
8178;DHT22;4130;48.740;9.132;2024-01-15T11:01:49;1.30;98.80
8178;DHT22;4130;48.740;9.132;2024-01-15T11:04:16;1.30;98.80
8178;DHT22;4130;48.740;9.132;2024-01-15T11:06:45;2.30;99.20
8178;DHT22;4130;48.740;9.132;2024-01-15T11:09:12;1.40;98.60
8178;DHT22;4130;48.740;9.132;2024-01-15T11:11:41;1.50;98.60
8178;DHT22;4130;48.740;9.132;2024-01-15T11:14:09;1.30;98.70
8178;DHT22;4130;48.740;9.132;2024-01-15T11:16:56;1.50;99.00
8178;DHT22;4130;48.740;9.132;2024-01-15T11:19:25;1.20;99.30
8178;DHT22;4130;48.740;9.132;2024-01-15T11:21:52;1.20;99.90
8178;DHT22;4130;48.740;9.132;2024-01-15T11:24:36;1.10;99.90
8178;DHT22;4130;48.740;9.132;2024-01-15T11:27:03;1.10;99.90
8178;DHT22;4130;48.740;9.132;2024-01-15T11:29:31;1.20;99.90
8178;DHT22;4130;48.740;9.132;2024-01-15T11:32:02;1.10;99.90
8178;DHT22;4130;48.740;9.132;2024-01-15T11:34:56;1.70;99.90
8178;DHT22;4130;48.740;9.132;2024-01-15T11:37:25;1.10;99.90
8178;DHT22;4130;48.740;9.132;2024-01-15T11:39:53;1.00;99.90
8178;DHT22;4130;48.740;9.132;2024-01-15T11:42:20;1.10;99.90
8178;DHT22;4130;48.740;9.132;2024-01-15T11:44:48;2.30;99.90
8178;DHT22;4130;48.740;9.132;2024-01-15T11:47:40;2.20;99.90
8178;DHT22;4130;48.740;9.132;2024-01-15T11:50:09;1.10;99.90
8178;DHT22;4130;48.740;9.132;2024-01-15T11:52:38;1.00;99.90
8178;DHT22;4130;48.740;9.132;2024-01-15T11:55:11;1.00;99.90
8178;DHT22;4130;48.740;9.132;2024-01-15T11:57:45;1.00;99.90
8178;DHT22;4130;48.740;9.132;2024-01-15T12:00:13;1.00;99.90
8178;DHT22;4130;48.740;9.132;2024-01-15T12:02:42;0.90;99.90
8178;DHT22;4130;48.740;9.132;2024-01-15T12:05:10;1.00;99.90
8178;DHT22;4130;48.740;9.132;2024-01-15T12:07:38;1.80;99.90
8178;DHT22;4130;48.740;9.132;2024-01-15T12:10:09;1.10;99.90
8178;DHT22;4130;48.740;9.132;2024-01-15T12:12:46;1.00;99.90
8178;DHT22;4130;48.740;9.132;2024-01-15T12:15:14;2.00;99.90
8178;DHT22;4130;48.740;9.132;2024-01-15T12:17:43;2.10;99.90
8178;DHT22;4130;48.740;9.132;2024-01-15T12:20:11;2.90;99.90
8178;DHT22;4130;48.740;9.132;2024-01-15T12:22:38;0.60;99.90
8178;DHT22;4130;48.740;9.132;2024-01-15T12:25:06;0.60;99.90
8178;DHT22;4130;48.740;9.132;2024-01-15T12:27:33;0.50;99.90
8178;DHT22;4130;48.740;9.132;2024-01-15T12:30:00;0.60;99.90
8178;DHT22;4130;48.740;9.132;2024-01-15T12:32:27;0.50;99.90
8178;DHT22;4130;48.740;9.132;2024-01-15T12:34:55;0.30;99.90
8178;DHT22;4130;48.740;9.132;2024-01-15T12:37:22;0.60;99.90
8178;DHT22;4130;48.740;9.132;2024-01-15T12:39:52;0.20;99.90
8178;DHT22;4130;48.740;9.132;2024-01-15T12:42:21;0.10;99.90
8178;DHT22;4130;48.740;9.132;2024-01-15T12:44:48;0.20;99.90
8178;DHT22;4130;48.740;9.132;2024-01-15T12:47:15;0.70;99.90
8178;DHT22;4130;48.740;9.132;2024-01-15T12:49:50;0.20;99.90
8178;DHT22;4130;48.740;9.132;2024-01-15T12:52:20;0.10;99.90
8178;DHT22;4130;48.740;9.132;2024-01-15T12:54:48;0.20;99.90
8178;DHT22;4130;48.740;9.132;2024-01-15T12:57:15;0.10;99.90
8178;DHT22;4130;48.740;9.132;2024-01-15T12:59:42;0.20;99.90
8178;DHT22;4130;48.740;9.132;2024-01-15T13:02:10;0.20;99.90
8178;DHT22;4130;48.740;9.132;2024-01-15T13:04:37;1.10;99.90
8178;DHT22;4130;48.740;9.132;2024-01-15T13:07:05;1.20;99.90
8178;DHT22;4130;48.740;9.132;2024-01-15T13:09:37;1.00;99.90
8178;DHT22;4130;48.740;9.132;2024-01-15T13:12:07;0.40;99.90
8178;DHT22;4130;48.740;9.132;2024-01-15T13:14:34;0.30;99.90
8178;DHT22;4130;48.740;9.132;2024-01-15T13:17:02;0.40;99.90
8178;DHT22;4130;48.740;9.132;2024-01-15T13:19:29;0.30;99.90
8178;DHT22;4130;48.740;9.132;2024-01-15T13:21:56;1.50;99.90
8178;DHT22;4130;48.740;9.132;2024-01-15T13:24:25;0.70;99.90
8178;DHT22;4130;48.740;9.132;2024-01-15T13:26:53;0.30;99.90
8178;DHT22;4130;48.740;9.132;2024-01-15T13:29:20;0.40;99.90
8178;DHT22;4130;48.740;9.132;2024-01-15T13:31:47;0.40;99.90
8178;DHT22;4130;48.740;9.132;2024-01-15T13:34:14;0.40;99.90
8178;DHT22;4130;48.740;9.132;2024-01-15T13:36:41;0.40;99.90
8178;DHT22;4130;48.740;9.132;2024-01-15T13:39:08;1.30;99.90
8178;DHT22;4130;48.740;9.132;2024-01-15T13:41:35;0.40;99.90
8178;DHT22;4130;48.740;9.132;2024-01-15T13:44:04;0.40;99.90
8178;DHT22;4130;48.740;9.132;2024-01-15T13:46:31;0.30;99.90
8178;DHT22;4130;48.740;9.132;2024-01-15T13:48:59;0.40;99.90
8178;DHT22;4130;48.740;9.132;2024-01-15T13:51:27;0.50;99.90
8178;DHT22;4130;48.740;9.132;2024-01-15T13:53:55;0.60;99.90
8178;DHT22;4130;48.740;9.132;2024-01-15T13:56:22;0.40;99.90
8178;DHT22;4130;48.740;9.132;2024-01-15T13:58:49;1.30;99.90
8178;DHT22;4130;48.740;9.132;2024-01-15T14:01:19;0.40;99.90
8178;DHT22;4130;48.740;9.132;2024-01-15T14:03:46;0.30;99.90
8178;DHT22;4130;48.740;9.132;2024-01-15T14:06:13;0.30;99.90
8178;DHT22;4130;48.740;9.132;2024-01-15T14:08:40;0.50;99.90
8178;DHT22;4130;48.740;9.132;2024-01-15T14:11:07;0.50;99.90
8178;DHT22;4130;48.740;9.132;2024-01-15T14:13:35;0.40;99.90
8178;DHT22;4130;48.740;9.132;2024-01-15T14:16:02;0.40;99.90
8178;DHT22;4130;48.740;9.132;2024-01-15T14:18:31;0.30;99.90
8178;DHT22;4130;48.740;9.132;2024-01-15T14:20:58;1.30;99.90
8178;DHT22;4130;48.740;9.132;2024-01-15T14:23:24;0.80;99.90
8178;DHT22;4130;48.740;9.132;2024-01-15T14:25:51;0.40;99.90
8178;DHT22;4130;48.740;9.132;2024-01-15T14:28:19;0.90;99.90
8178;DHT22;4130;48.740;9.132;2024-01-15T14:30:48;0.30;99.90
8178;DHT22;4130;48.740;9.132;2024-01-15T14:33:16;1.60;99.90
8178;DHT22;4130;48.740;9.132;2024-01-15T14:35:45;0.30;99.90
8178;DHT22;4130;48.740;9.132;2024-01-15T14:38:11;0.20;99.90
8178;DHT22;4130;48.740;9.132;2024-01-15T14:40:38;0.70;99.90
8178;DHT22;4130;48.740;9.132;2024-01-15T14:43:05;0.20;99.90
8178;DHT22;4130;48.740;9.132;2024-01-15T14:45:33;0.20;99.90
8178;DHT22;4130;48.740;9.132;2024-01-15T14:48:00;0.20;99.90
8178;DHT22;4130;48.740;9.132;2024-01-15T14:50:27;0.80;99.90
8178;DHT22;4130;48.740;9.132;2024-01-15T14:52:55;0.00;99.90
8178;DHT22;4130;48.740;9.132;2024-01-15T14:55:22;0.10;99.90
8178;DHT22;4130;48.740;9.132;2024-01-15T14:57:50;0.10;99.90
8178;DHT22;4130;48.740;9.132;2024-01-15T15:00:18;0.10;99.90
8178;DHT22;4130;48.740;9.132;2024-01-15T15:02:45;0.10;99.90
8178;DHT22;4130;48.740;9.132;2024-01-15T15:05:12;0.00;99.90
8178;DHT22;4130;48.740;9.132;2024-01-15T15:07:50;0.30;99.90
8178;DHT22;4130;48.740;9.132;2024-01-15T15:10:18;-0.10;99.90
8178;DHT22;4130;48.740;9.132;2024-01-15T15:12:48;0.00;99.90
8178;DHT22;4130;48.740;9.132;2024-01-15T15:15:15;1.40;99.90
8178;DHT22;4130;48.740;9.132;2024-01-15T15:17:43;0.00;99.90
8178;DHT22;4130;48.740;9.132;2024-01-15T15:20:11;-0.10;99.90
8178;DHT22;4130;48.740;9.132;2024-01-15T15:22:37;-0.10;99.90
8178;DHT22;4130;48.740;9.132;2024-01-15T15:25:05;0.30;99.90
8178;DHT22;4130;48.740;9.132;2024-01-15T15:27:35;-0.20;99.90
8178;DHT22;4130;48.740;9.132;2024-01-15T15:30:03;-0.10;99.90
8178;DHT22;4130;48.740;9.132;2024-01-15T15:32:30;-0.20;99.90
8178;DHT22;4130;48.740;9.132;2024-01-15T15:34:56;-0.20;99.90
8178;DHT22;4130;48.740;9.132;2024-01-15T15:37:24;-0.20;99.90
8178;DHT22;4130;48.740;9.132;2024-01-15T15:39:51;-0.20;99.90
8178;DHT22;4130;48.740;9.132;2024-01-15T15:42:18;1.10;99.90
8178;DHT22;4130;48.740;9.132;2024-01-15T15:44:46;-0.20;99.90
8178;DHT22;4130;48.740;9.132;2024-01-15T15:47:13;-0.30;99.90
8178;DHT22;4130;48.740;9.132;2024-01-15T15:49:42;-0.30;99.90
8178;DHT22;4130;48.740;9.132;2024-01-15T15:52:09;-0.30;99.90
8178;DHT22;4130;48.740;9.132;2024-01-15T15:54:36;-0.30;99.90
8178;DHT22;4130;48.740;9.132;2024-01-15T15:57:04;0.10;99.90
8178;DHT22;4130;48.740;9.132;2024-01-15T15:59:31;-0.40;99.90
8178;DHT22;4130;48.740;9.132;2024-01-15T16:01:59;-0.40;99.90
8178;DHT22;4130;48.740;9.132;2024-01-15T16:04:26;0.50;99.90
8178;DHT22;4130;48.740;9.132;2024-01-15T16:06:53;0.10;99.90
8178;DHT22;4130;48.740;9.132;2024-01-15T16:09:20;-0.40;99.90
8178;DHT22;4130;48.740;9.132;2024-01-15T16:11:47;-0.40;99.90